Jacob Moore

Scout - Aston Villa
11 Mär 2027
Donnerstag
Verarbeitung

Persönlichkeit

Anpassungsfähigkeit (3) Ehrgeiz (17) Kontroverse (4) Loyalität (8) Druck (15) Professionalität (2) Fairness (20) Temperament (6)

Profil

Trainerstil Demokratisch
Lizenz Kontinentale A
Entschlossenheit 11
Menschenführung 12
Motivation 13
Disziplin 8
Arbeitszufriedenheit
62%
Ermüdung
0%
Rolle Scout
Gehalt 92.8K p/W
Vertrag 14.03.2027

Leistung

Verhalten Gut
Trainingseffektivität
31%
Spielerentwicklung
45%
Verletzungsprävention
45%
Taktische Umsetzung
75%

Letzte Ereignisse

Nahm an einer Scouting-Besprechung teil jetzt
Nahm an einer Scouting-Besprechung teil jetzt
Nahm an einer Scouting-Besprechung teil jetzt
Nahm an einer Scouting-Besprechung teil jetzt
Nahm an einer Scouting-Besprechung teil jetzt
Vertragsverhandlung begonnen jetzt
Spieler begutachtet jetzt
Spieler begutachtet jetzt

Aktuell beobachtet

139
Spieler Verein Status Fähigkeit Vertrauen Beobachtet Zuletzt beobachtet Letzte Stimme
Fábio Carvalho Brentford Aktiv 139 / 144 40% 1 10.03.2027 -
Stefanos Tzimas Brighton Aktiv 141 / 130 40% 1 10.03.2027 -
Mohamed-Ali Cho Hull City Aktiv 140 / 139 40% 1 10.03.2027 -
Hector Ramirez Newcastle United Aktiv 153 / 163 40% 2 09.03.2027 -
Curtis Jones Inter Aktiv 164 / 161 40% 3 09.03.2027 -
João Pedro Chelsea Aktiv 155 / 148 40% 5 09.03.2027 Beobachten
Manfred Ugalde Spartak Moscow Aktiv 128 / 119 40% 1 09.03.2027 -
Dom Ballard Leyton Orient Aktiv 127 / 131 40% 1 09.03.2027 -
Gabriel Martinelli Brighton Aktiv 169 / 154 40% 6 08.03.2027 -
Nico González Newcastle United Aktiv 168 / 168 40% 7 08.03.2027 -
Matt O'Riley Brighton Aktiv 139 / 134 40% 2 07.03.2027 -
Kevin Fulham Aktiv 149 / 142 40% 4 07.03.2027 -
Dango Ouattara Brentford Aktiv 154 / 136 40% 5 07.03.2027 -
Nico O'Reilly Manchester City Aktiv 152 / 148 40% 4 06.03.2027 -
Kenan Yıldız Juventus Aktiv 166 / 173 40% 2 06.03.2027 Mehr Infos nötig
Mfundo Vilakazi Kaizer Chiefs Aktiv 115 / 118 40% 1 06.03.2027 -
Sascha Britschgi Padova Aktiv 115 / 131 40% 1 06.03.2027 -
Davide Bartesaghi AC Milan Aktiv 128 / 140 40% 1 06.03.2027 -
Kai Havertz Arsenal Aktiv 161 / 165 40% 7 05.03.2027 -
Bradley Barcola Liverpool Aktiv 160 / 161 40% 5 05.03.2027 -
Jaydee Canvot Crystal Palace Aktiv 127 / 129 40% 4 04.03.2027 -
Valentin Atangana Al-Ahli Aktiv 132 / 149 40% 1 04.03.2027 -
Jan Bürger Gillingham Aktiv 115 / 122 40% 1 04.03.2027 -
Amad Manchester United Aktiv 149 / 147 40% 3 02.03.2027 -
Iliman N'Diaye Everton Aktiv 157 / 149 40% 8 28.02.2027 Beobachten
Callum Hudson-Odoi Nottingham Forest Abgelehnt 155 / 147 40% 2 28.02.2027 Mehr Infos nötig
Xavi Simons Tottenham Aktiv 164 / 155 40% 3 27.02.2027 -
Mohammed Kudus Tottenham Aktiv 162 / 155 40% 6 26.02.2027 -
Matheus Cunha Manchester United Aktiv 165 / 154 40% 4 25.02.2027 -
Bryan Mbeumo Manchester United Aktiv 159 / 167 40% 5 25.02.2027 -
Francisco Conceição Juventus Aktiv 153 / 164 40% 1 25.02.2027 -
Carlos Vicente Birmingham Aktiv 143 / 133 40% 2 20.02.2027 Mehr Infos nötig
Giacomo Raspadori Atalanta Aktiv 153 / 152 40% 1 15.02.2027 -
Quinten Timber Crystal Palace Aktiv 145 / 157 40% 1 14.02.2027 -
Ryan Sessegnon Fulham Aktiv 142 / 138 40% 1 13.02.2027 -
Tino Livramento Newcastle United Aktiv 149 / 160 40% 2 12.02.2027 -
Ander Barrenetxea Real Sociedad Aktiv 157 / 152 40% 3 12.02.2027 -
Moisés Caicedo Chelsea Aktiv 169 / 161 40% 11 11.02.2027 -
Amine Adli Bournemouth Aktiv 151 / 151 40% 1 11.02.2027 -
Yeremy Pino Crystal Palace Aktiv 146 / 159 40% 1 11.02.2027 -
Sandro Tonali Tottenham Abgelehnt 169 / 174 40% 4 10.02.2027 Ablehnen
Pierre Kalulu Juventus Aktiv 157 / 153 40% 2 08.02.2027 -
Miloš Kerkez Liverpool Aktiv 152 / 166 40% 1 05.02.2027 -
Cody Gakpo Liverpool Aktiv 163 / 147 40% 4 03.02.2027 -
Adrien Truffert Bournemouth Aktiv 148 / 149 40% 1 03.02.2027 -
Enzo Fernández Manchester City Aktiv 167 / 175 40% 4 31.12.2026 -
Marcus Rashford Manchester United Aktiv 161 / 154 40% 6 29.12.2026 -
David Zapata Sheffield Wednesday Aktiv 152 / 147 40% 2 28.12.2026 -
Jorrel Hato Chelsea Aktiv 145 / 148 40% 2 27.12.2026 -
Josh King Chelsea Aktiv 135 / 155 40% 5 27.12.2026 -
Martín Zubimendi Arsenal Aktiv 157 / 161 40% 3 27.12.2026 -
Mauricio Amaro Atlanta United FC Aktiv 127 / 125 40% 2 27.12.2026 -
Kiernan Dewsbury-Hall Everton Aktiv 153 / 140 40% 3 26.12.2026 -
Declan Rice Arsenal Aktiv 190 / 189 40% 4 24.12.2026 -
Mason Mount Manchester United Aktiv 157 / 151 40% 2 24.12.2026 -
Kaoru Mitoma Brighton Aktiv 166 / 159 40% 3 23.12.2026 -
Lautaro Martínez Inter Aktiv 174 / 168 40% 1 23.12.2026 -
Jérémy Doku Manchester City Aktiv 168 / 161 40% 7 21.12.2026 Beobachten
William Saliba Arsenal Aktiv 177 / 165 40% 3 21.12.2026 -
Yan Diomandé Real Madrid Aktiv 152 / 161 40% 1 21.12.2026 -
Jarrad Branthwaite Everton Aktiv 146 / 152 40% 1 21.12.2026 -
Óscar Mingueza Crystal Palace Aktiv 147 / 138 40% 4 19.12.2026 -
El Hadji Malick Diouf Brentford Aktiv 132 / 153 40% 2 16.12.2026 -
Cemran Dansin Orlando Pirates Aktiv 108 / 115 40% 3 16.12.2026 -
Émile Fontaine Chamois Niortais Aktiv 112 / 131 40% 2 16.12.2026 -
Jack Hinshelwood Brighton Aktiv 139 / 150 40% 1 14.12.2026 -
Rico Lewis Manchester City Aktiv 143 / 162 40% 4 13.12.2026 -
Christian Pulisic AC Milan Aktiv 160 / 168 40% 5 12.12.2026 -
Jarrod Bowen West Ham United Aktiv 149 / 143 40% 3 12.12.2026 -
Charles De Ketelaere Atalanta Aktiv 161 / 160 40% 3 12.12.2026 -
Ryan Gravenberch Liverpool Aktiv 166 / 164 40% 3 10.12.2026 -
Emile Smith Rowe Fulham Aktiv 153 / 156 40% 1 10.12.2026 -
Tyler Adams Bournemouth Aktiv 148 / 160 40% 3 09.12.2026 -
Donyell Malen AS Roma Aktiv 149 / 149 40% 1 09.12.2026 -
Victor Osimhen Manchester United Aktiv 160 / 159 40% 2 06.12.2026 Mehr Infos nötig
Morgan Rogers Chelsea Aktiv 163 / 158 40% 5 06.12.2026 -
Simphiwe Selepe Orlando Pirates Aktiv 116 / 115 40% 3 05.12.2026 -
Caleb Yirenkyi Coventry City Aktiv 138 / 136 40% 3 05.12.2026 -
Ângelo Al-Nassr Aktiv 136 / 146 40% 1 05.12.2026 -
Noah Sadiki Sunderland Aktiv 140 / 145 40% 6 03.12.2026 -
Antoine Semenyo Manchester City Aktiv 164 / 159 40% 5 03.12.2026 -
Viktor Gyökeres Arsenal Aktiv 150 / 164 40% 3 03.12.2026 -
Christ Inao Oulaï Fiorentina Aktiv 133 / 143 40% 2 03.12.2026 -
João Simões Sporting CP Aktiv 133 / 146 40% 1 30.11.2026 -
Christos Mouzakitis Hull City Aktiv 125 / 143 40% 3 29.11.2026 -
Callum Hudson-Odoi Nottingham Forest Verloren 151 / 141 40% 2 28.11.2026 Mehr Infos nötig
Gonçalo Ramos AC Milan Aktiv 153 / 158 40% 2 25.11.2026 -
Yankuba Minteh Brighton Aktiv 155 / 154 40% 1 25.11.2026 -
Dušan Vlahović Juventus Aktiv 165 / 155 40% 1 24.11.2026 -
Gabriel Jesus Barcelona Aktiv 151 / 152 40% 4 22.11.2026 -
Luis Suárez Chelsea Aktiv 149 / 161 40% 3 17.11.2026 -
João Félix Olympiacos Aktiv 155 / 160 40% 1 16.11.2026 -
Bruno Guimarães Arsenal Aktiv 167 / 164 40% 3 15.11.2026 -
Florian Wirtz Liverpool Aktiv 178 / 171 40% 4 15.11.2026 -
Jeremie Frimpong Liverpool Aktiv 155 / 170 40% 2 15.11.2026 -
Hugo Ekitiké Liverpool Aktiv 164 / 159 40% 3 14.11.2026 Beobachten
Jurriën Timber Arsenal Aktiv 157 / 163 40% 2 13.11.2026 -
Marco Asensio Fenerbahce Aktiv 167 / 143 40% 4 11.11.2026 -
Jofre Torrents Ajax Aktiv 124 / 127 40% 2 09.11.2026 -
Dejan Kulusevski Tottenham Aktiv 165 / 161 40% 3 08.11.2026 -
Josen Escobar Al Ahli Aktiv 122 / 124 40% 2 08.11.2026 -
Micky van de Ven Tottenham Aktiv 162 / 151 40% 2 07.11.2026 -
Leroy Sané Galatasaray Aktiv 158 / 149 40% 2 05.11.2026 -
Furkan Demir Rapid Wien Aktiv 121 / 127 40% 1 05.11.2026 -
Warren Zaïre-Emery Paris Saint-Germain Aktiv 156 / 163 40% 1 05.11.2026 -
Mateo Mendoza Godoy Cruz Aktiv 126 / 124 40% 1 02.11.2026 -
Murillo Nottingham Forest Aktiv 151 / 158 40% 1 31.10.2026 -
James Maddison Tottenham Aktiv 153 / 162 40% 2 29.10.2026 -
Samuel Lucero Defensa y Justicia Aktiv 122 / 124 40% 1 29.10.2026 -
Philippe Ndinga Philadelphia Union Aktiv 123 / 104 40% 1 29.10.2026 -
Julián Bazán New York Red Bulls Aktiv 104 / 128 40% 2 28.10.2026 -
Yaimar Medina Racing Genk Aktiv 118 / 116 40% 2 25.10.2026 -
Noni Madueke Arsenal Aktiv 152 / 165 40% 1 23.10.2026 -
Levi Colwill Chelsea Aktiv 151 / 158 40% 2 21.10.2026 -
Noussair Mazraoui Manchester United Aktiv 147 / 156 40% 1 17.10.2026 -
Federico Chiesa Liverpool Aktiv 162 / 151 40% 3 15.10.2026 -
Ismaïla Sarr Crystal Palace Aktiv 151 / 148 40% 1 15.10.2026 -
Kyriani Sabbe Club Brugge Aktiv 117 / 130 40% 1 07.10.2026 -
Santiago Fernández Talleres Aktiv 123 / 129 40% 2 06.10.2026 -
Isaac Kyereh Liberty Professionals Aktiv 111 / 117 40% 1 06.10.2026 -
David Ozoh Derby County Aktiv 121 / 135 40% 1 06.10.2026 -
Ebere Eze Arsenal Aktiv 154 / 162 40% 1 05.10.2026 -
Lucas Bergvall Tottenham Aktiv 136 / 142 40% 3 02.10.2026 -
Stefan Bajčetić Liverpool Aktiv 131 / 138 40% 1 02.10.2026 -
Conor Gallagher Tottenham Aktiv 144 / 141 40% 1 02.10.2026 -
Matheus Nunes Manchester City Aktiv 153 / 168 40% 2 29.09.2026 -
Anton Stach Leeds United Aktiv 152 / 145 40% 1 29.09.2026 -
Nahuel Herrera Penarol Aktiv 122 / 140 40% 2 28.09.2026 -
Brooklyn Raines New England Revolution Aktiv 113 / 128 40% 1 28.09.2026 -
Mandla Erasmus SuperSport United Aktiv 114 / 114 40% 1 26.09.2026 -
Mbekezeli Mbokazi Chicago Fire Aktiv 131 / 128 40% 2 23.09.2026 -
Leny Yoro Manchester United Aktiv 143 / 140 40% 1 23.09.2026 -
Kevin Vazquez Cruz Azul Aktiv 139 / 153 40% 1 21.09.2026 -
Rabby Nzingoula West Bromwich Albion Aktiv 121 / 125 40% 1 18.09.2026 -
Elías Báez Atlanta United FC Aktiv 124 / 138 40% 1 12.09.2026 -
Xaver Schlager Nottingham Forest Aktiv 153 / 152 40% 1 11.09.2026 -
Youri Tielemans Manchester United Aktiv 160 / 151 40% 1 08.09.2026 -
Lewis Hall Newcastle United Aktiv 146 / 140 40% 1 17.08.2026 -
Mauricio González Minnesota United FC Aktiv 110 / 108 40% 1 17.08.2026 -